sensor_id;sensor_type;location;lat;lon;timestamp;P1;durP1;ratioP1;P2;durP2;ratioP2
1475;SDS011;730;48.870;12.542;2022-10-16T00:01:19;5.43;;;4.93;;
1475;SDS011;730;48.870;12.542;2022-10-16T00:03:46;5.60;;;4.70;;
1475;SDS011;730;48.870;12.542;2022-10-16T00:06:13;15.67;;;11.20;;
1475;SDS011;730;48.870;12.542;2022-10-16T00:08:39;46.90;;;30.03;;
1475;SDS011;730;48.870;12.542;2022-10-16T00:11:09;15.57;;;10.80;;
1475;SDS011;730;48.870;12.542;2022-10-16T00:13:37;7.80;;;6.00;;
1475;SDS011;730;48.870;12.542;2022-10-16T00:16:05;5.03;;;4.50;;
1475;SDS011;730;48.870;12.542;2022-10-16T00:18:31;4.33;;;3.90;;
1475;SDS011;730;48.870;12.542;2022-10-16T00:21:07;6.10;;;4.00;;
1475;SDS011;730;48.870;12.542;2022-10-16T00:23:38;3.50;;;3.13;;
1475;SDS011;730;48.870;12.542;2022-10-16T00:26:05;3.30;;;3.00;;
1475;SDS011;730;48.870;12.542;2022-10-16T00:28:32;3.90;;;3.50;;
1475;SDS011;730;48.870;12.542;2022-10-16T00:30:58;4.80;;;3.27;;
1475;SDS011;730;48.870;12.542;2022-10-16T00:33:24;4.90;;;2.90;;
1475;SDS011;730;48.870;12.542;2022-10-16T00:35:50;4.33;;;3.93;;
1475;SDS011;730;48.870;12.542;2022-10-16T00:38:16;3.97;;;3.67;;
1475;SDS011;730;48.870;12.542;2022-10-16T00:40:42;4.33;;;3.30;;
1475;SDS011;730;48.870;12.542;2022-10-16T00:43:14;4.57;;;3.87;;
1475;SDS011;730;48.870;12.542;2022-10-16T00:46:10;3.33;;;2.90;;
1475;SDS011;730;48.870;12.542;2022-10-16T00:49:10;4.33;;;3.93;;
1475;SDS011;730;48.870;12.542;2022-10-16T00:54:17;4.03;;;3.67;;
1475;SDS011;730;48.870;12.542;2022-10-16T00:56:47;4.33;;;3.27;;
1475;SDS011;730;48.870;12.542;2022-10-16T00:59:21;4.23;;;3.83;;
1475;SDS011;730;48.870;12.542;2022-10-16T01:01:50;4.10;;;3.70;;
1475;SDS011;730;48.870;12.542;2022-10-16T01:04:16;4.77;;;3.57;;
1475;SDS011;730;48.870;12.542;2022-10-16T01:06:45;7.23;;;4.20;;
1475;SDS011;730;48.870;12.542;2022-10-16T01:09:35;4.23;;;3.83;;
1475;SDS011;730;48.870;12.542;2022-10-16T01:12:10;4.00;;;3.37;;
1475;SDS011;730;48.870;12.542;2022-10-16T01:14:52;4.03;;;3.63;;
1475;SDS011;730;48.870;12.542;2022-10-16T01:17:23;4.03;;;3.67;;
1475;SDS011;730;48.870;12.542;2022-10-16T01:20:00;4.23;;;3.93;;
1475;SDS011;730;48.870;12.542;2022-10-16T01:22:54;7.13;;;3.80;;
1475;SDS011;730;48.870;12.542;2022-10-16T01:25:30;4.93;;;4.50;;
1475;SDS011;730;48.870;12.542;2022-10-16T01:28:15;4.63;;;4.07;;
1475;SDS011;730;48.870;12.542;2022-10-16T01:30:45;4.47;;;4.10;;
1475;SDS011;730;48.870;12.542;2022-10-16T01:33:22;4.53;;;3.83;;
1475;SDS011;730;48.870;12.542;2022-10-16T01:35:54;5.33;;;4.83;;
1475;SDS011;730;48.870;12.542;2022-10-16T01:38:25;4.97;;;4.57;;
1475;SDS011;730;48.870;12.542;2022-10-16T01:44:19;4.97;;;4.57;;
1475;SDS011;730;48.870;12.542;2022-10-16T01:46:50;6.20;;;4.57;;
1475;SDS011;730;48.870;12.542;2022-10-16T01:49:17;5.13;;;4.63;;
1475;SDS011;730;48.870;12.542;2022-10-16T01:51:46;6.20;;;5.17;;
1475;SDS011;730;48.870;12.542;2022-10-16T01:54:15;4.70;;;4.30;;
1475;SDS011;730;48.870;12.542;2022-10-16T01:56:43;5.20;;;4.80;;
1475;SDS011;730;48.870;12.542;2022-10-16T01:59:12;4.73;;;4.33;;
1475;SDS011;730;48.870;12.542;2022-10-16T02:01:41;5.47;;;4.83;;
1475;SDS011;730;48.870;12.542;2022-10-16T02:04:15;6.90;;;6.20;;
1475;SDS011;730;48.870;12.542;2022-10-16T02:07:00;6.07;;;5.47;;
1475;SDS011;730;48.870;12.542;2022-10-16T02:09:26;6.97;;;5.27;;
1475;SDS011;730;48.870;12.542;2022-10-16T02:11:52;5.10;;;4.70;;
1475;SDS011;730;48.870;12.542;2022-10-16T02:14:19;5.40;;;5.00;;
1475;SDS011;730;48.870;12.542;2022-10-16T02:16:49;5.17;;;4.67;;
1475;SDS011;730;48.870;12.542;2022-10-16T02:19:15;5.00;;;4.60;;
1475;SDS011;730;48.870;12.542;2022-10-16T02:29:42;5.40;;;4.90;;
1475;SDS011;730;48.870;12.542;2022-10-16T02:32:15;5.13;;;4.73;;
1475;SDS011;730;48.870;12.542;2022-10-16T02:34:45;5.77;;;5.37;;
1475;SDS011;730;48.870;12.542;2022-10-16T02:37:13;5.03;;;4.63;;
1475;SDS011;730;48.870;12.542;2022-10-16T02:39:39;9.70;;;5.17;;
1475;SDS011;730;48.870;12.542;2022-10-16T02:42:10;5.60;;;5.10;;
1475;SDS011;730;48.870;12.542;2022-10-16T02:44:39;5.80;;;3.63;;
1475;SDS011;730;48.870;12.542;2022-10-16T02:47:05;4.53;;;4.13;;
1475;SDS011;730;48.870;12.542;2022-10-16T02:49:31;4.97;;;4.40;;
1475;SDS011;730;48.870;12.542;2022-10-16T02:51:56;6.07;;;5.50;;
1475;SDS011;730;48.870;12.542;2022-10-16T02:54:22;5.50;;;5.10;;
1475;SDS011;730;48.870;12.542;2022-10-16T02:56:48;5.53;;;5.03;;
1475;SDS011;730;48.870;12.542;2022-10-16T02:59:14;8.27;;;5.50;;
1475;SDS011;730;48.870;12.542;2022-10-16T03:01:40;4.60;;;4.20;;
1475;SDS011;730;48.870;12.542;2022-10-16T03:04:05;5.13;;;4.63;;
1475;SDS011;730;48.870;12.542;2022-10-16T03:06:31;5.40;;;4.90;;
1475;SDS011;730;48.870;12.542;2022-10-16T03:08:57;5.20;;;4.70;;
1475;SDS011;730;48.870;12.542;2022-10-16T03:11:22;5.63;;;5.10;;
1475;SDS011;730;48.870;12.542;2022-10-16T03:13:48;4.80;;;4.40;;
1475;SDS011;730;48.870;12.542;2022-10-16T03:16:13;4.63;;;4.23;;
1475;SDS011;730;48.870;12.542;2022-10-16T03:18:39;5.80;;;5.30;;
1475;SDS011;730;48.870;12.542;2022-10-16T03:21:04;7.73;;;5.93;;
1475;SDS011;730;48.870;12.542;2022-10-16T03:23:30;6.80;;;6.20;;
1475;SDS011;730;48.870;12.542;2022-10-16T03:25:56;7.70;;;6.03;;
1475;SDS011;730;48.870;12.542;2022-10-16T03:28:21;6.83;;;5.57;;
1475;SDS011;730;48.870;12.542;2022-10-16T03:30:47;9.13;;;6.77;;
1475;SDS011;730;48.870;12.542;2022-10-16T03:33:12;6.30;;;5.70;;
1475;SDS011;730;48.870;12.542;2022-10-16T03:35:38;6.97;;;6.27;;
1475;SDS011;730;48.870;12.542;2022-10-16T03:38:03;7.77;;;6.97;;
1475;SDS011;730;48.870;12.542;2022-10-16T03:40:29;7.63;;;6.93;;
1475;SDS011;730;48.870;12.542;2022-10-16T03:42:57;7.10;;;6.40;;
1475;SDS011;730;48.870;12.542;2022-10-16T03:45:23;6.70;;;6.10;;
1475;SDS011;730;48.870;12.542;2022-10-16T03:47:49;7.00;;;6.33;;
1475;SDS011;730;48.870;12.542;2022-10-16T03:50:14;7.37;;;6.37;;
1475;SDS011;730;48.870;12.542;2022-10-16T03:52:40;7.00;;;6.40;;
1475;SDS011;730;48.870;12.542;2022-10-16T03:55:06;7.90;;;7.10;;
1475;SDS011;730;48.870;12.542;2022-10-16T03:57:32;7.43;;;6.33;;
1475;SDS011;730;48.870;12.542;2022-10-16T03:59:58;5.90;;;5.37;;
1475;SDS011;730;48.870;12.542;2022-10-16T04:02:24;6.20;;;5.60;;
1475;SDS011;730;48.870;12.542;2022-10-16T04:04:50;7.10;;;6.40;;
1475;SDS011;730;48.870;12.542;2022-10-16T04:07:17;6.90;;;6.30;;
1475;SDS011;730;48.870;12.542;2022-10-16T04:09:43;7.50;;;6.53;;
1475;SDS011;730;48.870;12.542;2022-10-16T04:12:09;6.77;;;6.17;;
1475;SDS011;730;48.870;12.542;2022-10-16T04:14:34;8.37;;;6.90;;
1475;SDS011;730;48.870;12.542;2022-10-16T04:17:00;6.40;;;5.87;;
1475;SDS011;730;48.870;12.542;2022-10-16T04:19:25;6.73;;;6.13;;
1475;SDS011;730;48.870;12.542;2022-10-16T04:21:51;7.20;;;6.47;;
1475;SDS011;730;48.870;12.542;2022-10-16T04:24:17;7.10;;;6.50;;
1475;SDS011;730;48.870;12.542;2022-10-16T04:26:42;7.70;;;6.43;;
1475;SDS011;730;48.870;12.542;2022-10-16T04:29:08;8.00;;;6.30;;
1475;SDS011;730;48.870;12.542;2022-10-16T04:31:33;8.03;;;7.23;;
1475;SDS011;730;48.870;12.542;2022-10-16T04:33:59;8.00;;;7.20;;
1475;SDS011;730;48.870;12.542;2022-10-16T04:36:24;8.00;;;7.20;;
1475;SDS011;730;48.870;12.542;2022-10-16T04:38:50;8.10;;;7.40;;
1475;SDS011;730;48.870;12.542;2022-10-16T04:41:16;7.67;;;6.87;;
1475;SDS011;730;48.870;12.542;2022-10-16T04:43:41;7.77;;;7.07;;
1475;SDS011;730;48.870;12.542;2022-10-16T04:46:07;7.77;;;6.90;;
1475;SDS011;730;48.870;12.542;2022-10-16T04:48:32;8.00;;;7.00;;
1475;SDS011;730;48.870;12.542;2022-10-16T04:50:58;7.90;;;7.20;;
1475;SDS011;730;48.870;12.542;2022-10-16T04:53:24;8.53;;;7.20;;
1475;SDS011;730;48.870;12.542;2022-10-16T04:55:50;9.87;;;6.60;;
1475;SDS011;730;48.870;12.542;2022-10-16T04:58:15;8.80;;;6.90;;
1475;SDS011;730;48.870;12.542;2022-10-16T05:00:41;7.37;;;6.67;;
1475;SDS011;730;48.870;12.542;2022-10-16T05:03:07;7.20;;;6.50;;
1475;SDS011;730;48.870;12.542;2022-10-16T05:05:34;9.30;;;6.53;;
1475;SDS011;730;48.870;12.542;2022-10-16T05:08:00;8.33;;;7.47;;
1475;SDS011;730;48.870;12.542;2022-10-16T05:10:26;8.60;;;7.70;;
1475;SDS011;730;48.870;12.542;2022-10-16T05:12:51;7.47;;;6.87;;
1475;SDS011;730;48.870;12.542;2022-10-16T05:15:17;6.73;;;6.13;;
1475;SDS011;730;48.870;12.542;2022-10-16T05:17:43;7.13;;;6.43;;
1475;SDS011;730;48.870;12.542;2022-10-16T05:20:09;10.50;;;7.40;;
1475;SDS011;730;48.870;12.542;2022-10-16T05:22:35;7.40;;;6.63;;
1475;SDS011;730;48.870;12.542;2022-10-16T05:25:00;8.17;;;7.03;;
1475;SDS011;730;48.870;12.542;2022-10-16T05:27:26;8.43;;;7.63;;
1475;SDS011;730;48.870;12.542;2022-10-16T05:29:52;9.20;;;7.10;;
1475;SDS011;730;48.870;12.542;2022-10-16T05:32:18;7.77;;;6.93;;
1475;SDS011;730;48.870;12.542;2022-10-16T05:34:44;8.03;;;6.43;;
1475;SDS011;730;48.870;12.542;2022-10-16T05:37:10;7.53;;;6.80;;
1475;SDS011;730;48.870;12.542;2022-10-16T05:39:36;7.23;;;6.60;;
1475;SDS011;730;48.870;12.542;2022-10-16T05:42:03;8.30;;;7.33;;
1475;SDS011;730;48.870;12.542;2022-10-16T05:44:29;7.07;;;6.43;;
1475;SDS011;730;48.870;12.542;2022-10-16T05:46:55;8.07;;;7.37;;
1475;SDS011;730;48.870;12.542;2022-10-16T05:49:21;10.60;;;7.63;;
1475;SDS011;730;48.870;12.542;2022-10-16T05:51:46;7.70;;;6.93;;
1475;SDS011;730;48.870;12.542;2022-10-16T05:54:12;7.23;;;6.53;;
1475;SDS011;730;48.870;12.542;2022-10-16T05:56:37;8.33;;;7.63;;
1475;SDS011;730;48.870;12.542;2022-10-16T05:59:03;8.40;;;7.03;;
1475;SDS011;730;48.870;12.542;2022-10-16T06:01:29;9.30;;;7.20;;
1475;SDS011;730;48.870;12.542;2022-10-16T06:03:55;8.07;;;7.37;;
1475;SDS011;730;48.870;12.542;2022-10-16T06:06:22;7.90;;;6.83;;
1475;SDS011;730;48.870;12.542;2022-10-16T06:08:51;7.37;;;6.67;;
1475;SDS011;730;48.870;12.542;2022-10-16T06:11:28;7.77;;;7.17;;
1475;SDS011;730;48.870;12.542;2022-10-16T06:13:56;6.80;;;6.20;;
1475;SDS011;730;48.870;12.542;2022-10-16T06:16:24;7.53;;;6.80;;
1475;SDS011;730;48.870;12.542;2022-10-16T06:18:54;7.03;;;6.43;;
1475;SDS011;730;48.870;12.542;2022-10-16T06:21:21;9.10;;;8.00;;
1475;SDS011;730;48.870;12.542;2022-10-16T06:23:52;9.03;;;6.80;;
1475;SDS011;730;48.870;12.542;2022-10-16T06:26:19;7.03;;;6.37;;
1475;SDS011;730;48.870;12.542;2022-10-16T06:28:46;6.70;;;6.10;;
1475;SDS011;730;48.870;12.542;2022-10-16T06:31:13;6.17;;;5.63;;
1475;SDS011;730;48.870;12.542;2022-10-16T06:33:40;6.40;;;5.77;;
1475;SDS011;730;48.870;12.542;2022-10-16T06:36:07;6.10;;;5.50;;
1475;SDS011;730;48.870;12.542;2022-10-16T06:38:34;5.60;;;5.10;;
1475;SDS011;730;48.870;12.542;2022-10-16T06:41:01;5.57;;;5.07;;
1475;SDS011;730;48.870;12.542;2022-10-16T06:43:28;6.50;;;5.47;;
1475;SDS011;730;48.870;12.542;2022-10-16T06:45:57;5.93;;;5.43;;
1475;SDS011;730;48.870;12.542;2022-10-16T06:48:23;6.27;;;5.63;;
1475;SDS011;730;48.870;12.542;2022-10-16T06:53:25;6.00;;;5.50;;
1475;SDS011;730;48.870;12.542;2022-10-16T06:55:53;6.50;;;5.37;;
1475;SDS011;730;48.870;12.542;2022-10-16T06:58:20;6.10;;;5.50;;
1475;SDS011;730;48.870;12.542;2022-10-16T07:00:46;6.17;;;5.10;;
1475;SDS011;730;48.870;12.542;2022-10-16T07:03:11;5.43;;;4.80;;
1475;SDS011;730;48.870;12.542;2022-10-16T07:05:41;5.73;;;5.23;;
1475;SDS011;730;48.870;12.542;2022-10-16T07:08:07;6.00;;;5.53;;
1475;SDS011;730;48.870;12.542;2022-10-16T07:10:33;5.30;;;4.83;;
1475;SDS011;730;48.870;12.542;2022-10-16T07:12:59;5.07;;;4.63;;
1475;SDS011;730;48.870;12.542;2022-10-16T07:15:25;6.73;;;5.90;;
1475;SDS011;730;48.870;12.542;2022-10-16T07:17:51;5.60;;;5.07;;
1475;SDS011;730;48.870;12.542;2022-10-16T07:20:17;6.17;;;4.87;;
1475;SDS011;730;48.870;12.542;2022-10-16T07:22:42;5.50;;;5.00;;
1475;SDS011;730;48.870;12.542;2022-10-16T07:25:08;5.70;;;5.17;;
1475;SDS011;730;48.870;12.542;2022-10-16T07:27:34;6.03;;;5.50;;
1475;SDS011;730;48.870;12.542;2022-10-16T07:29:59;5.07;;;4.40;;
1475;SDS011;730;48.870;12.542;2022-10-16T07:32:25;4.63;;;4.17;;
1475;SDS011;730;48.870;12.542;2022-10-16T07:34:51;4.27;;;3.87;;
1475;SDS011;730;48.870;12.542;2022-10-16T07:37:17;4.70;;;4.30;;
1475;SDS011;730;48.870;12.542;2022-10-16T07:39:43;5.27;;;4.40;;
1475;SDS011;730;48.870;12.542;2022-10-16T07:42:08;3.93;;;3.63;;
1475;SDS011;730;48.870;12.542;2022-10-16T07:44:34;4.60;;;4.20;;
1475;SDS011;730;48.870;12.542;2022-10-16T07:47:00;4.50;;;4.10;;
1475;SDS011;730;48.870;12.542;2022-10-16T07:49:25;4.30;;;3.40;;
1475;SDS011;730;48.870;12.542;2022-10-16T07:51:51;4.30;;;3.57;;
1475;SDS011;730;48.870;12.542;2022-10-16T07:54:16;3.77;;;3.47;;
1475;SDS011;730;48.870;12.542;2022-10-16T07:56:42;4.50;;;3.67;;
1475;SDS011;730;48.870;12.542;2022-10-16T07:59:08;4.43;;;3.30;;
1475;SDS011;730;48.870;12.542;2022-10-16T08:01:33;4.03;;;3.63;;
1475;SDS011;730;48.870;12.542;2022-10-16T08:03:59;3.47;;;3.17;;
1475;SDS011;730;48.870;12.542;2022-10-16T08:06:25;3.40;;;2.73;;
1475;SDS011;730;48.870;12.542;2022-10-16T08:08:50;3.20;;;3.00;;
1475;SDS011;730;48.870;12.542;2022-10-16T08:11:16;4.30;;;3.10;;
1475;SDS011;730;48.870;12.542;2022-10-16T08:13:42;3.73;;;3.43;;
1475;SDS011;730;48.870;12.542;2022-10-16T08:16:08;3.97;;;3.57;;
1475;SDS011;730;48.870;12.542;2022-10-16T08:18:35;5.53;;;4.53;;
1475;SDS011;730;48.870;12.542;2022-10-16T08:21:02;3.33;;;3.00;;
1475;SDS011;730;48.870;12.542;2022-10-16T08:23:28;2.80;;;2.60;;
1475;SDS011;730;48.870;12.542;2022-10-16T08:25:54;3.20;;;2.90;;
1475;SDS011;730;48.870;12.542;2022-10-16T08:28:21;3.83;;;2.80;;
1475;SDS011;730;48.870;12.542;2022-10-16T08:30:47;3.30;;;3.00;;
1475;SDS011;730;48.870;12.542;2022-10-16T08:33:13;3.23;;;2.80;;
1475;SDS011;730;48.870;12.542;2022-10-16T08:35:38;5.90;;;3.20;;
1475;SDS011;730;48.870;12.542;2022-10-16T08:38:04;2.97;;;2.67;;
1475;SDS011;730;48.870;12.542;2022-10-16T08:40:31;6.03;;;2.90;;
1475;SDS011;730;48.870;12.542;2022-10-16T08:50:42;2.53;;;2.30;;
1475;SDS011;730;48.870;12.542;2022-10-16T08:53:10;3.33;;;2.73;;
1475;SDS011;730;48.870;12.542;2022-10-16T08:55:43;3.10;;;2.47;;
1475;SDS011;730;48.870;12.542;2022-10-16T08:58:14;2.93;;;2.53;;
1475;SDS011;730;48.870;12.542;2022-10-16T09:00:41;2.67;;;2.47;;
1475;SDS011;730;48.870;12.542;2022-10-16T09:03:17;2.60;;;1.80;;
1475;SDS011;730;48.870;12.542;2022-10-16T09:05:52;2.57;;;2.27;;
1475;SDS011;730;48.870;12.542;2022-10-16T09:08:36;2.33;;;2.13;;
1475;SDS011;730;48.870;12.542;2022-10-16T09:11:10;2.23;;;2.03;;
1475;SDS011;730;48.870;12.542;2022-10-16T09:19:04;2.00;;;1.77;;
1475;SDS011;730;48.870;12.542;2022-10-16T09:21:40;2.23;;;2.03;;
1475;SDS011;730;48.870;12.542;2022-10-16T09:24:15;3.97;;;2.53;;
1475;SDS011;730;48.870;12.542;2022-10-16T09:26:43;2.30;;;2.10;;
1475;SDS011;730;48.870;12.542;2022-10-16T09:29:16;3.30;;;2.30;;
1475;SDS011;730;48.870;12.542;2022-10-16T09:31:47;2.63;;;1.90;;
1475;SDS011;730;48.870;12.542;2022-10-16T09:37:03;2.53;;;2.33;;
1475;SDS011;730;48.870;12.542;2022-10-16T09:39:43;2.30;;;1.77;;
1475;SDS011;730;48.870;12.542;2022-10-16T09:42:17;4.60;;;2.40;;
1475;SDS011;730;48.870;12.542;2022-10-16T09:44:55;2.30;;;2.10;;
1475;SDS011;730;48.870;12.542;2022-10-16T09:47:22;2.17;;;1.57;;
1475;SDS011;730;48.870;12.542;2022-10-16T09:49:54;2.50;;;1.90;;
1475;SDS011;730;48.870;12.542;2022-10-16T09:52:27;2.87;;;1.90;;
1475;SDS011;730;48.870;12.542;2022-10-16T09:55:13;2.20;;;1.60;;
1475;SDS011;730;48.870;12.542;2022-10-16T09:57:50;1.90;;;1.80;;
1475;SDS011;730;48.870;12.542;2022-10-16T10:00:19;2.77;;;1.80;;
1475;SDS011;730;48.870;12.542;2022-10-16T10:02:46;2.00;;;1.80;;
1475;SDS011;730;48.870;12.542;2022-10-16T10:07:45;2.30;;;2.10;;
1475;SDS011;730;48.870;12.542;2022-10-16T10:10:21;3.43;;;1.50;;
1475;SDS011;730;48.870;12.542;2022-10-16T10:12:49;4.27;;;2.07;;
1475;SDS011;730;48.870;12.542;2022-10-16T10:15:15;1.60;;;1.50;;
1475;SDS011;730;48.870;12.542;2022-10-16T10:17:55;2.50;;;1.60;;
1475;SDS011;730;48.870;12.542;2022-10-16T10:22:50;2.33;;;1.70;;
1475;SDS011;730;48.870;12.542;2022-10-16T10:36:20;2.77;;;1.60;;
1475;SDS011;730;48.870;12.542;2022-10-16T10:45:04;6.10;;;1.80;;
1475;SDS011;730;48.870;12.542;2022-10-16T10:50:43;1.67;;;1.57;;
1475;SDS011;730;48.870;12.542;2022-10-16T10:56:05;2.83;;;1.80;;
1475;SDS011;730;48.870;12.542;2022-10-16T11:06:59;2.20;;;2.00;;
1475;SDS011;730;48.870;12.542;2022-10-16T11:09:33;2.37;;;1.60;;
1475;SDS011;730;48.870;12.542;2022-10-16T11:12:09;1.70;;;1.60;;
1475;SDS011;730;48.870;12.542;2022-10-16T11:17:16;1.90;;;1.70;;
1475;SDS011;730;48.870;12.542;2022-10-16T11:20:14;2.10;;;1.90;;
1475;SDS011;730;48.870;12.542;2022-10-16T11:23:10;2.03;;;1.83;;
1475;SDS011;730;48.870;12.542;2022-10-16T11:25:43;1.80;;;1.70;;
1475;SDS011;730;48.870;12.542;2022-10-16T11:28:17;4.83;;;1.93;;
1475;SDS011;730;48.870;12.542;2022-10-16T11:33:49;2.33;;;1.80;;
1475;SDS011;730;48.870;12.542;2022-10-16T11:36:57;2.07;;;1.87;;
1475;SDS011;730;48.870;12.542;2022-10-16T11:39:39;2.53;;;1.83;;
1475;SDS011;730;48.870;12.542;2022-10-16T11:42:10;2.40;;;2.20;;
1475;SDS011;730;48.870;12.542;2022-10-16T11:52:56;2.80;;;2.00;;
1475;SDS011;730;48.870;12.542;2022-10-16T11:55:44;2.07;;;1.50;;
1475;SDS011;730;48.870;12.542;2022-10-16T12:06:40;6.00;;;2.07;;
1475;SDS011;730;48.870;12.542;2022-10-16T12:09:15;1.70;;;1.50;;
1475;SDS011;730;48.870;12.542;2022-10-16T12:11:47;2.47;;;1.83;;
1475;SDS011;730;48.870;12.542;2022-10-16T12:16:50;2.07;;;1.90;;
1475;SDS011;730;48.870;12.542;2022-10-16T12:19:18;5.63;;;2.37;;
1475;SDS011;730;48.870;12.542;2022-10-16T12:21:46;3.23;;;2.03;;
1475;SDS011;730;48.870;12.542;2022-10-16T12:24:32;2.17;;;1.87;;
1475;SDS011;730;48.870;12.542;2022-10-16T12:27:02;1.70;;;1.60;;
1475;SDS011;730;48.870;12.542;2022-10-16T12:32:28;2.53;;;2.33;;
1475;SDS011;730;48.870;12.542;2022-10-16T12:35:02;2.87;;;2.17;;
1475;SDS011;730;48.870;12.542;2022-10-16T12:37:31;2.50;;;2.30;;
1475;SDS011;730;48.870;12.542;2022-10-16T12:42:49;3.33;;;2.30;;
1475;SDS011;730;48.870;12.542;2022-10-16T12:45:31;2.60;;;2.40;;
1475;SDS011;730;48.870;12.542;2022-10-16T12:47:59;2.13;;;1.93;;
1475;SDS011;730;48.870;12.542;2022-10-16T12:50:27;5.03;;;2.90;;
1475;SDS011;730;48.870;12.542;2022-10-16T12:53:15;4.07;;;2.80;;
1475;SDS011;730;48.870;12.542;2022-10-16T12:55:47;2.60;;;2.30;;
1475;SDS011;730;48.870;12.542;2022-10-16T13:01:07;9.57;;;2.70;;
1475;SDS011;730;48.870;12.542;2022-10-16T13:04:00;2.97;;;2.40;;
1475;SDS011;730;48.870;12.542;2022-10-16T13:09:19;3.33;;;2.40;;
1475;SDS011;730;48.870;12.542;2022-10-16T13:14:46;3.00;;;2.13;;
1475;SDS011;730;48.870;12.542;2022-10-16T13:20:12;3.47;;;2.90;;
1475;SDS011;730;48.870;12.542;2022-10-16T13:25:46;2.73;;;2.53;;
1475;SDS011;730;48.870;12.542;2022-10-16T13:28:49;4.03;;;2.60;;
1475;SDS011;730;48.870;12.542;2022-10-16T13:31:17;3.80;;;2.50;;
1475;SDS011;730;48.870;12.542;2022-10-16T13:33:47;4.17;;;2.40;;
1475;SDS011;730;48.870;12.542;2022-10-16T13:36:24;2.73;;;2.53;;
1475;SDS011;730;48.870;12.542;2022-10-16T13:41:35;3.90;;;2.57;;
1475;SDS011;730;48.870;12.542;2022-10-16T13:44:01;3.00;;;2.53;;
1475;SDS011;730;48.870;12.542;2022-10-16T13:46:27;2.67;;;2.47;;
1475;SDS011;730;48.870;12.542;2022-10-16T13:48:58;2.90;;;2.57;;
1475;SDS011;730;48.870;12.542;2022-10-16T13:51:55;3.10;;;2.73;;
1475;SDS011;730;48.870;12.542;2022-10-16T13:54:22;3.40;;;2.93;;
1475;SDS011;730;48.870;12.542;2022-10-16T13:56:49;3.20;;;2.77;;
1475;SDS011;730;48.870;12.542;2022-10-16T14:01:51;3.20;;;2.90;;
1475;SDS011;730;48.870;12.542;2022-10-16T14:04:19;2.90;;;2.60;;
1475;SDS011;730;48.870;12.542;2022-10-16T14:06:46;3.57;;;2.87;;
1475;SDS011;730;48.870;12.542;2022-10-16T14:09:21;3.30;;;3.00;;
1475;SDS011;730;48.870;12.542;2022-10-16T14:11:58;4.73;;;3.20;;
1475;SDS011;730;48.870;12.542;2022-10-16T14:14:26;2.83;;;2.63;;
1475;SDS011;730;48.870;12.542;2022-10-16T14:17:00;3.13;;;2.60;;
1475;SDS011;730;48.870;12.542;2022-10-16T14:19:27;4.00;;;2.73;;
1475;SDS011;730;48.870;12.542;2022-10-16T14:21:55;3.17;;;2.97;;
1475;SDS011;730;48.870;12.542;2022-10-16T14:24:42;3.40;;;3.10;;
1475;SDS011;730;48.870;12.542;2022-10-16T14:27:55;3.40;;;3.10;;
1475;SDS011;730;48.870;12.542;2022-10-16T14:30:09;3.43;;;3.13;;
1475;SDS011;730;48.870;12.542;2022-10-16T14:32:40;3.73;;;2.93;;
1475;SDS011;730;48.870;12.542;2022-10-16T14:35:21;5.37;;;2.70;;
1475;SDS011;730;48.870;12.542;2022-10-16T14:37:55;3.43;;;3.13;;
1475;SDS011;730;48.870;12.542;2022-10-16T14:40:23;3.93;;;3.07;;
1475;SDS011;730;48.870;12.542;2022-10-16T14:42:51;2.90;;;2.67;;
1475;SDS011;730;48.870;12.542;2022-10-16T14:45:21;3.30;;;2.93;;
1475;SDS011;730;48.870;12.542;2022-10-16T14:47:50;3.27;;;2.97;;
1475;SDS011;730;48.870;12.542;2022-10-16T14:50:27;4.10;;;3.70;;
1475;SDS011;730;48.870;12.542;2022-10-16T14:52:53;3.30;;;3.07;;
1475;SDS011;730;48.870;12.542;2022-10-16T14:55:20;4.70;;;3.30;;
1475;SDS011;730;48.870;12.542;2022-10-16T14:57:45;3.80;;;3.50;;
1475;SDS011;730;48.870;12.542;2022-10-16T15:00:21;3.50;;;3.20;;
1475;SDS011;730;48.870;12.542;2022-10-16T15:02:49;4.80;;;3.00;;
1475;SDS011;730;48.870;12.542;2022-10-16T15:05:19;4.47;;;4.07;;
1475;SDS011;730;48.870;12.542;2022-10-16T15:07:47;4.53;;;3.60;;
1475;SDS011;730;48.870;12.542;2022-10-16T15:10:14;3.90;;;3.53;;
1475;SDS011;730;48.870;12.542;2022-10-16T15:12:40;4.30;;;3.33;;
1475;SDS011;730;48.870;12.542;2022-10-16T15:17:59;3.50;;;3.20;;
1475;SDS011;730;48.870;12.542;2022-10-16T15:20:30;5.80;;;3.67;;
1475;SDS011;730;48.870;12.542;2022-10-16T15:22:59;5.30;;;2.93;;
1475;SDS011;730;48.870;12.542;2022-10-16T15:25:33;3.13;;;2.83;;
1475;SDS011;730;48.870;12.542;2022-10-16T15:27:59;3.80;;;3.00;;
1475;SDS011;730;48.870;12.542;2022-10-16T15:30:27;3.33;;;3.03;;
1475;SDS011;730;48.870;12.542;2022-10-16T15:32:53;3.87;;;3.57;;
1475;SDS011;730;48.870;12.542;2022-10-16T15:35:18;4.07;;;3.00;;
1475;SDS011;730;48.870;12.542;2022-10-16T15:37:45;3.63;;;3.33;;
1475;SDS011;730;48.870;12.542;2022-10-16T15:40:11;7.57;;;3.70;;
1475;SDS011;730;48.870;12.542;2022-10-16T15:42:37;3.00;;;2.70;;
1475;SDS011;730;48.870;12.542;2022-10-16T15:45:03;4.97;;;3.83;;
1475;SDS011;730;48.870;12.542;2022-10-16T15:47:29;3.57;;;3.23;;
1475;SDS011;730;48.870;12.542;2022-10-16T15:49:55;5.30;;;3.93;;
1475;SDS011;730;48.870;12.542;2022-10-16T15:52:20;6.80;;;3.80;;
1475;SDS011;730;48.870;12.542;2022-10-16T15:54:46;4.50;;;4.10;;
1475;SDS011;730;48.870;12.542;2022-10-16T15:57:11;6.77;;;3.70;;
1475;SDS011;730;48.870;12.542;2022-10-16T15:59:37;3.80;;;2.80;;
1475;SDS011;730;48.870;12.542;2022-10-16T16:02:02;4.97;;;3.80;;
1475;SDS011;730;48.870;12.542;2022-10-16T16:04:31;3.53;;;3.13;;
1475;SDS011;730;48.870;12.542;2022-10-16T16:06:57;4.30;;;3.20;;
1475;SDS011;730;48.870;12.542;2022-10-16T16:09:22;5.17;;;4.07;;
1475;SDS011;730;48.870;12.542;2022-10-16T16:11:48;4.80;;;4.07;;
1475;SDS011;730;48.870;12.542;2022-10-16T16:14:16;3.73;;;3.43;;
1475;SDS011;730;48.870;12.542;2022-10-16T16:16:42;5.60;;;4.33;;
1475;SDS011;730;48.870;12.542;2022-10-16T16:19:07;8.03;;;6.40;;
1475;SDS011;730;48.870;12.542;2022-10-16T16:21:34;8.07;;;7.27;;
1475;SDS011;730;48.870;12.542;2022-10-16T16:24:00;8.40;;;7.70;;
1475;SDS011;730;48.870;12.542;2022-10-16T16:26:32;7.97;;;6.60;;
1475;SDS011;730;48.870;12.542;2022-10-16T16:29:01;14.63;;;13.10;;
1475;SDS011;730;48.870;12.542;2022-10-16T16:31:28;10.70;;;9.60;;
1475;SDS011;730;48.870;12.542;2022-10-16T16:33:55;7.33;;;5.80;;
1475;SDS011;730;48.870;12.542;2022-10-16T16:36:22;5.93;;;5.10;;
1475;SDS011;730;48.870;12.542;2022-10-16T16:38:48;5.77;;;5.17;;
1475;SDS011;730;48.870;12.542;2022-10-16T16:41:14;5.10;;;4.70;;
1475;SDS011;730;48.870;12.542;2022-10-16T16:43:42;4.50;;;4.10;;
1475;SDS011;730;48.870;12.542;2022-10-16T16:46:07;5.17;;;4.63;;
1475;SDS011;730;48.870;12.542;2022-10-16T16:48:34;5.70;;;4.20;;
1475;SDS011;730;48.870;12.542;2022-10-16T16:51:04;4.40;;;4.00;;
1475;SDS011;730;48.870;12.542;2022-10-16T16:53:32;4.60;;;4.10;;
1475;SDS011;730;48.870;12.542;2022-10-16T16:56:02;6.43;;;5.93;;
1475;SDS011;730;48.870;12.542;2022-10-16T16:58:29;8.37;;;7.67;;
1475;SDS011;730;48.870;12.542;2022-10-16T17:00:55;7.73;;;7.03;;
1475;SDS011;730;48.870;12.542;2022-10-16T17:03:21;6.53;;;6.00;;
1475;SDS011;730;48.870;12.542;2022-10-16T17:05:57;10.27;;;9.20;;
1475;SDS011;730;48.870;12.542;2022-10-16T17:08:30;9.90;;;8.90;;
1475;SDS011;730;48.870;12.542;2022-10-16T17:10:56;9.17;;;8.37;;
1475;SDS011;730;48.870;12.542;2022-10-16T17:13:23;6.60;;;5.90;;
1475;SDS011;730;48.870;12.542;2022-10-16T17:15:49;5.50;;;4.93;;
1475;SDS011;730;48.870;12.542;2022-10-16T17:18:16;4.53;;;4.10;;
1475;SDS011;730;48.870;12.542;2022-10-16T17:20:42;4.60;;;4.10;;
1475;SDS011;730;48.870;12.542;2022-10-16T17:23:11;5.33;;;4.83;;
1475;SDS011;730;48.870;12.542;2022-10-16T17:25:38;4.97;;;4.50;;
1475;SDS011;730;48.870;12.542;2022-10-16T17:28:05;4.87;;;4.30;;
1475;SDS011;730;48.870;12.542;2022-10-16T17:30:35;5.63;;;4.17;;